Time;durP1;ratioP1;P1;durP2;ratioP2;P2;SDS_P1;SDS_P2;PMS_P1;PMS_P2;Temp;Humidity;BMP_temperature;BMP_pressure;BME280_temperature;BME280_humidity;BME280_pressure;Samples;Min_cycle;Max_cycle;Signal;HPM_P1;HPM_P2
2024/03/22 00:00:00;;;;;;;;;;;9.30;99.90;;;;;;2067433;28;20387;-72
2024/03/22 00:01:01;;;;;;;;;;;9.30;99.90;;;;;;2067020;28;19925;-72
2024/03/22 00:02:01;;;;;;;;;;;9.30;99.90;;;;;;2066712;28;19921;-71
2024/03/22 00:03:02;;;;;;;;;;;9.30;99.90;;;;;;2067286;28;19924;-71
2024/03/22 00:04:02;;;;;;;;;;;9.30;99.90;;;;;;2067344;28;19914;-72
2024/03/22 00:05:03;;;;;;;;;;;9.30;99.90;;;;;;2067667;28;19919;-72
2024/03/22 00:06:04;;;;;;;;;;;9.30;99.90;;;;;;2067532;28;19921;-72
2024/03/22 00:07:05;;;;;;;;;;;9.30;99.90;;;;;;2067511;28;19917;-71
2024/03/22 00:08:05;;;;;;;;;;;9.30;99.90;;;;;;2067337;28;20008;-72
2024/03/22 00:09:06;;;;;;;;;;;9.30;99.90;;;;;;2067436;28;19952;-72
2024/03/22 00:10:06;;;;;;;;;;;9.30;99.90;;;;;;2067995;28;19920;-72
2024/03/22 00:11:07;;;;;;;;;;;9.30;99.90;;;;;;2067040;28;20055;-72
2024/03/22 00:12:07;;;;;;;;;;;9.30;99.90;;;;;;2067135;28;19926;-71
2024/03/22 00:13:08;;;;;;;;;;;9.30;99.90;;;;;;2067442;28;21274;-71
2024/03/22 00:14:09;;;;;;;;;;;9.30;99.90;;;;;;2067248;28;19917;-72
2024/03/22 00:15:09;;;;;;;;;;;9.30;99.90;;;;;;2067640;28;19917;-72
2024/03/22 00:16:10;;;;;;;;;;;9.40;99.90;;;;;;2067101;28;19921;-72
2024/03/22 00:17:10;;;;;;;;;;;9.30;99.90;;;;;;2067299;28;19925;-72
2024/03/22 00:18:11;;;;;;;;;;;9.30;99.90;;;;;;2066310;28;20555;-71
2024/03/22 00:19:11;;;;;;;;;;;9.30;99.90;;;;;;2066613;28;19980;-72
2024/03/22 00:20:12;;;;;;;;;;;9.30;99.90;;;;;;2067560;28;20847;-72
2024/03/22 00:21:12;;;;;;;;;;;9.30;99.90;;;;;;2066449;28;19961;-72
2024/03/22 00:22:13;;;;;;;;;;;9.30;99.90;;;;;;2066591;28;19964;-71
2024/03/22 00:23:13;;;;;;;;;;;9.30;99.90;;;;;;2067326;28;19917;-71
2024/03/22 00:24:14;;;;;;;;;;;9.30;99.90;;;;;;2066593;28;19914;-72
2024/03/22 00:25:14;;;;;;;;;;;9.40;99.90;;;;;;2066520;28;19921;-70
2024/03/22 00:26:15;;;;;;;;;;;9.40;99.90;;;;;;2066854;28;19924;-73
2024/03/22 00:27:15;;;;;;;;;;;9.30;99.90;;;;;;2067231;28;19933;-73
2024/03/22 00:28:16;;;;;;;;;;;9.30;99.90;;;;;;2066571;28;19938;-72
2024/03/22 00:29:16;;;;;;;;;;;9.30;99.90;;;;;;2066621;28;20208;-73
2024/03/22 00:30:17;;;;;;;;;;;9.30;99.90;;;;;;2066747;28;19933;-73
2024/03/22 00:31:18;;;;;;;;;;;9.30;99.90;;;;;;2063058;28;19936;-73
2024/03/22 00:32:18;;;;;;;;;;;9.30;99.90;;;;;;2066521;28;19969;-73
2024/03/22 00:33:19;;;;;;;;;;;9.30;99.90;;;;;;2067566;28;19948;-73
2024/03/22 00:34:19;;;;;;;;;;;9.30;99.90;;;;;;2067124;28;20026;-71
2024/03/22 00:35:20;;;;;;;;;;;9.30;99.90;;;;;;2067115;28;19964;-71
2024/03/22 00:36:20;;;;;;;;;;;9.30;99.90;;;;;;2067139;28;19928;-72
2024/03/22 00:37:21;;;;;;;;;;;9.30;99.90;;;;;;2066482;28;19913;-72
2024/03/22 00:38:21;;;;;;;;;;;9.30;99.90;;;;;;2066963;28;19921;-72
2024/03/22 00:39:22;;;;;;;;;;;9.30;99.90;;;;;;2067017;28;20387;-72
2024/03/22 00:40:22;;;;;;;;;;;9.30;99.90;;;;;;2067132;28;19924;-72
2024/03/22 00:41:23;;;;;;;;;;;9.30;99.90;;;;;;2067241;28;19920;-72
2024/03/22 00:42:23;;;;;;;;;;;9.30;99.90;;;;;;2067405;28;20349;-73
2024/03/22 00:43:23;;;;;;;;;;;9.30;99.90;;;;;;2067113;28;19965;-72
2024/03/22 00:44:24;;;;;;;;;;;9.30;99.90;;;;;;2066645;28;19978;-72
2024/03/22 00:45:25;;;;;;;;;;;9.30;99.90;;;;;;2066903;28;20138;-72
2024/03/22 00:46:25;;;;;;;;;;;9.40;99.90;;;;;;2067024;28;19921;-72
2024/03/22 00:47:26;;;;;;;;;;;9.40;99.90;;;;;;2067839;28;19922;-71
2024/03/22 00:48:26;;;;;;;;;;;9.30;99.90;;;;;;2067769;28;19917;-71
2024/03/22 00:49:26;;;;;;;;;;;9.30;99.90;;;;;;2066953;28;19962;-71
2024/03/22 00:50:27;;;;;;;;;;;9.30;99.90;;;;;;2067003;28;20405;-71
2024/03/22 00:51:28;;;;;;;;;;;9.30;99.90;;;;;;2067261;28;20007;-71
2024/03/22 00:52:28;;;;;;;;;;;9.30;99.90;;;;;;2066529;28;19918;-71
2024/03/22 00:53:29;;;;;;;;;;;9.30;99.90;;;;;;2066281;28;20391;-72
2024/03/22 00:54:30;;;;;;;;;;;9.30;99.90;;;;;;2066224;28;19928;-71
2024/03/22 00:55:30;;;;;;;;;;;9.30;99.90;;;;;;2074085;28;19955;-71
2024/03/22 00:56:31;;;;;;;;;;;9.30;99.90;;;;;;2074700;28;19967;-72
2024/03/22 00:57:31;;;;;;;;;;;9.30;99.90;;;;;;2066734;28;19917;-72
2024/03/22 00:58:32;;;;;;;;;;;9.30;99.90;;;;;;2066397;28;19918;-72
2024/03/22 00:59:33;;;;;;;;;;;9.30;99.90;;;;;;2066914;28;19964;-72
2024/03/22 01:00:34;;;;;;;;;;;9.30;99.90;;;;;;2066664;28;19917;-72
2024/03/22 01:01:34;;;;;;;;;;;9.30;99.90;;;;;;2063616;28;20376;-72
2024/03/22 01:02:35;;;;;;;;;;;9.30;99.90;;;;;;2067136;28;19921;-72
2024/03/22 01:03:35;;;;;;;;;;;9.30;99.90;;;;;;2066267;28;19913;-72
2024/03/22 01:04:36;;;;;;;;;;;9.40;99.90;;;;;;2066468;28;20129;-72
2024/03/22 01:05:36;;;;;;;;;;;9.40;99.90;;;;;;2067104;28;19971;-72
2024/03/22 01:06:37;;;;;;;;;;;9.30;99.90;;;;;;2066456;28;19941;-72
2024/03/22 01:07:37;;;;;;;;;;;9.30;99.90;;;;;;2066225;28;19918;-71
2024/03/22 01:08:38;;;;;;;;;;;9.30;99.90;;;;;;2067305;28;19944;-72
2024/03/22 01:09:38;;;;;;;;;;;9.50;99.90;;;;;;2066121;28;19940;-71
2024/03/22 01:10:39;;;;;;;;;;;9.50;99.90;;;;;;2066506;28;19921;-71
2024/03/22 01:11:40;;;;;;;;;;;9.40;99.90;;;;;;2058193;28;19917;-71
2024/03/22 01:12:40;;;;;;;;;;;9.40;99.90;;;;;;2054607;28;19921;-71
2024/03/22 01:13:41;;;;;;;;;;;9.40;99.90;;;;;;2066950;28;19995;-71
2024/03/22 01:14:41;;;;;;;;;;;9.30;99.90;;;;;;2066934;28;20299;-70
2024/03/22 01:15:42;;;;;;;;;;;9.30;99.90;;;;;;2067403;28;20028;-71
2024/03/22 01:16:43;;;;;;;;;;;9.30;99.90;;;;;;2066307;28;20008;-71
2024/03/22 01:17:43;;;;;;;;;;;9.30;99.90;;;;;;2066569;28;20035;-72
2024/03/22 01:18:44;;;;;;;;;;;9.30;99.90;;;;;;2067294;28;19939;-72
2024/03/22 01:19:44;;;;;;;;;;;9.30;99.90;;;;;;2067038;28;19918;-72
2024/03/22 01:20:45;;;;;;;;;;;9.20;99.90;;;;;;2067172;28;19924;-71
2024/03/22 01:21:46;;;;;;;;;;;9.20;99.90;;;;;;2067155;28;20591;-71
2024/03/22 01:22:47;;;;;;;;;;;9.20;99.90;;;;;;2066229;28;19918;-71
2024/03/22 01:23:47;;;;;;;;;;;9.20;99.90;;;;;;2066355;28;20084;-71
2024/03/22 01:24:48;;;;;;;;;;;9.20;99.90;;;;;;2066671;28;19963;-70
2024/03/22 01:25:48;;;;;;;;;;;9.20;99.90;;;;;;2067222;28;20019;-71
2024/03/22 01:26:48;;;;;;;;;;;9.10;99.90;;;;;;2067433;28;19957;-71
2024/03/22 01:27:49;;;;;;;;;;;9.10;99.90;;;;;;2066269;28;19957;-71
2024/03/22 01:28:49;;;;;;;;;;;9.10;99.90;;;;;;2066375;28;19968;-70
2024/03/22 01:29:50;;;;;;;;;;;9.00;99.90;;;;;;2067234;28;20026;-71
2024/03/22 01:30:50;;;;;;;;;;;9.10;99.90;;;;;;2064199;28;19956;-72
2024/03/22 01:31:51;;;;;;;;;;;9.00;99.90;;;;;;2058243;28;20402;-72
2024/03/22 01:32:51;;;;;;;;;;;9.00;99.90;;;;;;2050149;28;20009;-72
2024/03/22 01:33:52;;;;;;;;;;;9.00;99.90;;;;;;2063613;28;19917;-71
2024/03/22 01:34:52;;;;;;;;;;;9.00;99.90;;;;;;2058064;28;19918;-72
2024/03/22 01:35:53;;;;;;;;;;;9.00;99.90;;;;;;2058370;28;19968;-71
2024/03/22 01:36:53;;;;;;;;;;;9.00;99.90;;;;;;2066937;28;19913;-71
2024/03/22 01:37:54;;;;;;;;;;;9.10;99.90;;;;;;2067067;28;20321;-72
2024/03/22 01:38:54;;;;;;;;;;;9.00;99.90;;;;;;2067181;28;19921;-72
2024/03/22 01:39:55;;;;;;;;;;;9.10;99.90;;;;;;2067002;28;19917;-76
2024/03/22 01:40:55;;;;;;;;;;;9.10;99.90;;;;;;2067170;28;20010;-77
2024/03/22 01:41:56;;;;;;;;;;;9.00;99.90;;;;;;2066970;28;20157;-78
2024/03/22 01:42:57;;;;;;;;;;;9.00;99.90;;;;;;2067039;28;19953;-76
2024/03/22 01:43:57;;;;;;;;;;;9.00;99.90;;;;;;2067589;28;19918;-76
2024/03/22 01:44:58;;;;;;;;;;;9.00;99.90;;;;;;2066485;28;19924;-76
2024/03/22 01:45:58;;;;;;;;;;;9.00;99.90;;;;;;2066787;28;19959;-77
2024/03/22 01:47:02;;;;;;;;;;;9.00;99.90;;;;;;2066915;28;19914;-76
2024/03/22 01:48:03;;;;;;;;;;;9.00;99.90;;;;;;2066455;28;19921;-77
2024/03/22 01:49:04;;;;;;;;;;;9.00;99.90;;;;;;2058429;28;19922;-77
2024/03/22 01:50:06;;;;;;;;;;;9.00;99.90;;;;;;2066390;28;19918;-77
2024/03/22 01:51:06;;;;;;;;;;;9.00;99.90;;;;;;2066706;28;19928;-76
2024/03/22 01:52:07;;;;;;;;;;;9.00;99.90;;;;;;2067104;28;20672;-77
2024/03/22 01:53:08;;;;;;;;;;;9.00;99.90;;;;;;2066162;28;20221;-76
2024/03/22 01:54:09;;;;;;;;;;;9.00;99.90;;;;;;2058432;28;19945;-76
2024/03/22 01:55:09;;;;;;;;;;;9.10;99.90;;;;;;2058155;28;19925;-77
2024/03/22 01:56:10;;;;;;;;;;;9.10;99.90;;;;;;2058605;28;20387;-77
2024/03/22 01:57:10;;;;;;;;;;;9.00;99.90;;;;;;2066238;28;19921;-76
2024/03/22 01:58:12;;;;;;;;;;;9.00;99.90;;;;;;2066235;28;19945;-77
2024/03/22 01:59:13;;;;;;;;;;;9.00;99.90;;;;;;2058393;28;20009;-76
2024/03/22 02:00:14;;;;;;;;;;;9.00;99.90;;;;;;2066573;28;19956;-76
2024/03/22 02:01:15;;;;;;;;;;;9.00;99.90;;;;;;2067171;28;19921;-76
2024/03/22 02:02:15;;;;;;;;;;;9.00;99.90;;;;;;2067046;28;19988;-76
2024/03/22 02:03:15;;;;;;;;;;;9.00;99.90;;;;;;2066903;28;20571;-76
2024/03/22 02:04:16;;;;;;;;;;;9.00;99.90;;;;;;2066861;28;19964;-76
2024/03/22 02:05:21;;;;;;;;;;;9.10;99.90;;;;;;2064650;28;19917;-76
2024/03/22 02:06:21;;;;;;;;;;;9.00;99.90;;;;;;2067435;28;20335;-77
2024/03/22 02:07:22;;;;;;;;;;;9.00;99.90;;;;;;2067170;28;19914;-76
2024/03/22 02:08:22;;;;;;;;;;;9.00;99.90;;;;;;2066882;28;20403;-76
2024/03/22 02:09:23;;;;;;;;;;;9.00;99.90;;;;;;2067058;28;19941;-76
2024/03/22 02:10:23;;;;;;;;;;;9.00;99.90;;;;;;2067125;28;19914;-76
2024/03/22 02:11:25;;;;;;;;;;;9.00;99.90;;;;;;2067059;28;19992;-76
2024/03/22 02:12:26;;;;;;;;;;;9.00;99.90;;;;;;2067664;28;19921;-76
2024/03/22 02:13:26;;;;;;;;;;;9.00;99.90;;;;;;2068561;28;20365;-77
2024/03/22 02:14:26;;;;;;;;;;;9.00;99.90;;;;;;2068423;28;20188;-76
2024/03/22 02:15:27;;;;;;;;;;;9.00;99.90;;;;;;2067722;28;19917;-77
2024/03/22 02:16:27;;;;;;;;;;;9.00;99.90;;;;;;2068037;28;20429;-77
2024/03/22 02:17:28;;;;;;;;;;;9.00;99.90;;;;;;2068485;28;20013;-77
2024/03/22 02:18:28;;;;;;;;;;;9.00;99.90;;;;;;2067532;28;19965;-77
2024/03/22 02:19:29;;;;;;;;;;;9.00;99.90;;;;;;2059712;28;19913;-77
2024/03/22 02:20:29;;;;;;;;;;;9.00;99.90;;;;;;2067872;28;19918;-77
2024/03/22 02:21:30;;;;;;;;;;;9.00;99.90;;;;;;2067569;28;19923;-77
2024/03/22 02:22:30;;;;;;;;;;;8.90;99.90;;;;;;2067763;28;19913;-76
2024/03/22 02:23:34;;;;;;;;;;;8.90;99.90;;;;;;2068155;28;19917;-76
2024/03/22 02:24:35;;;;;;;;;;;8.90;99.90;;;;;;2068257;28;19968;-76
2024/03/22 02:25:35;;;;;;;;;;;8.90;99.90;;;;;;2068101;28;19913;-75
2024/03/22 02:26:36;;;;;;;;;;;8.90;99.90;;;;;;2067514;28;19922;-75
2024/03/22 02:27:37;;;;;;;;;;;8.80;99.90;;;;;;2067671;28;19917;-76
2024/03/22 02:28:38;;;;;;;;;;;8.90;99.90;;;;;;2059390;28;19921;-76
2024/03/22 02:29:38;;;;;;;;;;;8.80;99.90;;;;;;2059345;28;19943;-76
2024/03/22 02:30:39;;;;;;;;;;;8.80;99.90;;;;;;2062850;28;19921;-75
2024/03/22 02:31:39;;;;;;;;;;;8.80;99.90;;;;;;2067456;28;19914;-77
2024/03/22 02:32:40;;;;;;;;;;;8.80;99.90;;;;;;2059412;28;19917;-76
2024/03/22 02:33:40;;;;;;;;;;;8.80;99.90;;;;;;2067958;28;20547;-76
2024/03/22 02:34:41;;;;;;;;;;;8.80;99.90;;;;;;2067638;28;19920;-76
2024/03/22 02:35:42;;;;;;;;;;;8.80;99.90;;;;;;2059873;28;20376;-76
2024/03/22 02:36:42;;;;;;;;;;;8.80;99.90;;;;;;2059799;28;19922;-77
2024/03/22 02:37:43;;;;;;;;;;;8.80;99.90;;;;;;2068108;28;20227;-77
2024/03/22 02:38:43;;;;;;;;;;;8.80;99.90;;;;;;2067729;28;19988;-77
2024/03/22 02:39:43;;;;;;;;;;;8.80;99.90;;;;;;2067723;28;19913;-77
2024/03/22 02:40:44;;;;;;;;;;;8.80;99.90;;;;;;2067553;28;19924;-76
2024/03/22 02:41:45;;;;;;;;;;;8.80;99.90;;;;;;2067361;28;19924;-76
2024/03/22 02:42:45;;;;;;;;;;;8.80;99.90;;;;;;2067423;28;19948;-77
2024/03/22 02:43:46;;;;;;;;;;;8.70;99.90;;;;;;2067344;28;19913;-76
2024/03/22 02:44:46;;;;;;;;;;;8.70;99.90;;;;;;2059873;28;19910;-76
2024/03/22 02:45:47;;;;;;;;;;;8.70;99.90;;;;;;2067230;28;19924;-77
2024/03/22 02:46:47;;;;;;;;;;;8.70;99.90;;;;;;2071450;28;22916;-77
2024/03/22 02:47:48;;;;;;;;;;;8.70;99.90;;;;;;2067510;28;19922;-77
2024/03/22 02:48:48;;;;;;;;;;;8.70;99.90;;;;;;2067521;28;19924;-77
2024/03/22 02:49:49;;;;;;;;;;;8.70;99.90;;;;;;2067685;28;19949;-76
2024/03/22 02:50:54;;;;;;;;;;;8.80;99.90;;;;;;2067255;28;19982;-77
2024/03/22 02:51:55;;;;;;;;;;;8.80;99.90;;;;;;2067393;28;19920;-77
2024/03/22 02:52:55;;;;;;;;;;;8.80;99.90;;;;;;2068233;28;19913;-76
2024/03/22 02:53:56;;;;;;;;;;;8.80;99.90;;;;;;2067531;28;19913;-76
2024/03/22 02:54:56;;;;;;;;;;;8.70;99.90;;;;;;2067369;28;19921;-76
2024/03/22 02:55:59;;;;;;;;;;;8.80;99.90;;;;;;2068197;28;19970;-76
2024/03/22 02:57:01;;;;;;;;;;;8.80;99.90;;;;;;2063789;28;19932;-75
2024/03/22 02:58:02;;;;;;;;;;;8.70;99.90;;;;;;2067329;28;19928;-76
2024/03/22 02:59:03;;;;;;;;;;;8.70;99.90;;;;;;2067168;28;19921;-76
2024/03/22 03:00:04;;;;;;;;;;;8.70;99.90;;;;;;2067333;28;19918;-77
2024/03/22 03:01:05;;;;;;;;;;;8.80;99.90;;;;;;2068296;28;20391;-76
2024/03/22 03:02:06;;;;;;;;;;;8.70;99.90;;;;;;2068449;28;19919;-77
2024/03/22 03:03:06;;;;;;;;;;;8.70;99.90;;;;;;2070195;28;20260;-76
2024/03/22 03:04:07;;;;;;;;;;;8.70;99.90;;;;;;2067294;28;19923;-76
2024/03/22 03:05:07;;;;;;;;;;;8.70;99.90;;;;;;2064268;28;20431;-76
2024/03/22 03:06:08;;;;;;;;;;;8.70;99.90;;;;;;2066635;28;19917;-76
2024/03/22 03:07:09;;;;;;;;;;;8.70;99.90;;;;;;2072912;28;20504;-76
2024/03/22 03:08:10;;;;;;;;;;;8.70;99.90;;;;;;2067024;28;20245;-77
2024/03/22 03:09:10;;;;;;;;;;;8.70;99.90;;;;;;2066984;28;19928;-76
2024/03/22 03:10:11;;;;;;;;;;;8.70;99.90;;;;;;2067768;28;19914;-77
2024/03/22 03:11:12;;;;;;;;;;;8.70;99.90;;;;;;2067257;28;20308;-76
2024/03/22 03:12:12;;;;;;;;;;;8.60;99.90;;;;;;2067007;28;20043;-76
2024/03/22 03:13:13;;;;;;;;;;;8.60;99.90;;;;;;2067955;28;19956;-76
2024/03/22 03:14:13;;;;;;;;;;;8.60;99.90;;;;;;2067960;28;19961;-76
2024/03/22 03:15:13;;;;;;;;;;;8.70;99.90;;;;;;2067974;28;19924;-76
2024/03/22 03:16:14;;;;;;;;;;;8.70;99.90;;;;;;2068084;28;20346;-76
2024/03/22 03:17:14;;;;;;;;;;;8.70;99.90;;;;;;2067633;28;19917;-76
2024/03/22 03:18:15;;;;;;;;;;;8.60;99.90;;;;;;2067700;28;20008;-76
2024/03/22 03:19:15;;;;;;;;;;;8.60;99.90;;;;;;2067855;28;19920;-76
2024/03/22 03:20:17;;;;;;;;;;;8.70;99.90;;;;;;2067710;28;19948;-76
2024/03/22 03:21:18;;;;;;;;;;;8.70;99.90;;;;;;2067378;28;19956;-77
2024/03/22 03:22:18;;;;;;;;;;;8.70;99.90;;;;;;2067874;28;20039;-76
2024/03/22 03:23:19;;;;;;;;;;;8.70;99.90;;;;;;2067213;28;19921;-77
2024/03/22 03:24:19;;;;;;;;;;;8.70;99.90;;;;;;2067021;28;19917;-76
2024/03/22 03:25:19;;;;;;;;;;;8.70;99.90;;;;;;2067958;28;20371;-76
2024/03/22 03:26:20;;;;;;;;;;;8.70;99.90;;;;;;2068220;28;19921;-76
2024/03/22 03:27:20;;;;;;;;;;;8.70;99.90;;;;;;2067648;28;20372;-76
2024/03/22 03:28:21;;;;;;;;;;;8.70;99.90;;;;;;2067877;28;19920;-76
2024/03/22 03:29:21;;;;;;;;;;;8.60;99.90;;;;;;2067468;28;20875;-77
2024/03/22 03:30:22;;;;;;;;;;;8.60;99.90;;;;;;2067051;28;19976;-77
2024/03/22 03:31:22;;;;;;;;;;;8.60;99.90;;;;;;2057552;28;19976;-76
2024/03/22 03:32:24;;;;;;;;;;;8.70;99.90;;;;;;2060457;28;19972;-78
2024/03/22 03:33:24;;;;;;;;;;;8.60;99.90;;;;;;2067229;28;19965;-76
2024/03/22 03:34:25;;;;;;;;;;;8.60;99.90;;;;;;2067261;28;19917;-76
2024/03/22 03:35:26;;;;;;;;;;;8.60;99.90;;;;;;2067556;28;19913;-76
2024/03/22 03:36:27;;;;;;;;;;;8.60;99.90;;;;;;2067360;28;20237;-76
2024/03/22 03:37:27;;;;;;;;;;;8.60;99.90;;;;;;2067589;28;20848;-76
2024/03/22 03:38:28;;;;;;;;;;;8.60;99.90;;;;;;2067016;28;19956;-77
2024/03/22 03:39:29;;;;;;;;;;;8.60;99.90;;;;;;2067177;28;20731;-77
2024/03/22 03:40:29;;;;;;;;;;;8.60;99.90;;;;;;2067477;28;19917;-78
2024/03/22 03:41:30;;;;;;;;;;;8.60;99.90;;;;;;2067018;28;19914;-77
2024/03/22 03:42:30;;;;;;;;;;;8.60;99.90;;;;;;2066823;28;19940;-77
2024/03/22 03:43:31;;;;;;;;;;;8.60;99.90;;;;;;2066931;28;20490;-77
2024/03/22 03:44:31;;;;;;;;;;;8.60;99.90;;;;;;2067653;28;19921;-77
2024/03/22 03:45:32;;;;;;;;;;;8.60;99.90;;;;;;2067803;28;19917;-76
2024/03/22 03:46:32;;;;;;;;;;;8.60;99.90;;;;;;2067938;28;20296;-78
2024/03/22 03:47:33;;;;;;;;;;;8.50;99.90;;;;;;2067561;28;20126;-77
2024/03/22 03:48:33;;;;;;;;;;;8.60;99.90;;;;;;2067640;28;19917;-78
2024/03/22 03:49:34;;;;;;;;;;;8.60;99.90;;;;;;2067311;28;20471;-75
2024/03/22 03:50:34;;;;;;;;;;;8.50;99.90;;;;;;2063302;28;20256;-76
2024/03/22 03:51:35;;;;;;;;;;;8.50;99.90;;;;;;2067271;28;20009;-76
2024/03/22 03:52:35;;;;;;;;;;;8.50;99.90;;;;;;2067705;28;19981;-76
2024/03/22 03:53:36;;;;;;;;;;;8.50;99.90;;;;;;2067565;28;20370;-76
2024/03/22 03:54:36;;;;;;;;;;;8.50;99.90;;;;;;2067223;28;20040;-75
2024/03/22 03:55:37;;;;;;;;;;;8.60;99.90;;;;;;2068383;28;19921;-76
2024/03/22 03:56:37;;;;;;;;;;;8.60;99.90;;;;;;2067432;28;19923;-76
2024/03/22 03:57:38;;;;;;;;;;;8.50;99.90;;;;;;2067597;28;20376;-76
2024/03/22 03:58:38;;;;;;;;;;;8.60;99.90;;;;;;2067859;28;19921;-75
2024/03/22 03:59:39;;;;;;;;;;;8.60;99.90;;;;;;2067421;28;20004;-75
2024/03/22 04:00:39;;;;;;;;;;;8.60;99.90;;;;;;2067425;28;20382;-75
2024/03/22 04:01:40;;;;;;;;;;;8.60;99.90;;;;;;2067577;28;20027;-77
2024/03/22 04:02:40;;;;;;;;;;;8.60;99.90;;;;;;2067608;28;19914;-75
2024/03/22 04:03:41;;;;;;;;;;;8.60;99.90;;;;;;2067199;28;19925;-76
2024/03/22 04:04:41;;;;;;;;;;;8.60;99.90;;;;;;2066904;28;20125;-75
2024/03/22 04:05:42;;;;;;;;;;;8.60;99.90;;;;;;2067489;28;19979;-76
2024/03/22 04:06:43;;;;;;;;;;;8.60;99.90;;;;;;2062781;28;20384;-75
2024/03/22 04:07:46;;;;;;;;;;;8.50;99.90;;;;;;2067116;28;19913;-76
2024/03/22 04:08:47;;;;;;;;;;;8.50;99.90;;;;;;2068424;28;20364;-76
2024/03/22 04:09:47;;;;;;;;;;;8.50;99.90;;;;;;2071025;28;20008;-76
2024/03/22 04:10:51;;;;;;;;;;;8.50;99.90;;;;;;2066741;28;20430;-76
2024/03/22 04:11:52;;;;;;;;;;;8.50;99.90;;;;;;2066564;28;19920;-76
2024/03/22 04:12:52;;;;;;;;;;;8.50;99.90;;;;;;2067125;28;20291;-77
2024/03/22 04:13:53;;;;;;;;;;;8.50;99.90;;;;;;2067353;28;19913;-71
2024/03/22 04:14:53;;;;;;;;;;;8.50;99.90;;;;;;2068002;28;19921;-76
2024/03/22 04:15:54;;;;;;;;;;;8.50;99.90;;;;;;2058415;28;19983;-72
2024/03/22 04:16:55;;;;;;;;;;;8.50;99.90;;;;;;2058708;28;19929;-76
2024/03/22 04:17:56;;;;;;;;;;;8.50;99.90;;;;;;2066838;28;20180;-75
2024/03/22 04:18:57;;;;;;;;;;;8.50;99.90;;;;;;2067147;28;20376;-76
2024/03/22 04:19:57;;;;;;;;;;;8.40;99.90;;;;;;2066801;28;20140;-76
2024/03/22 04:20:59;;;;;;;;;;;8.40;99.90;;;;;;2066602;28;19918;-75
2024/03/22 04:21:59;;;;;;;;;;;8.40;99.90;;;;;;2066712;28;19956;-76
2024/03/22 04:23:00;;;;;;;;;;;8.40;99.90;;;;;;2066609;28;19956;-75
2024/03/22 04:24:00;;;;;;;;;;;8.40;99.90;;;;;;2067480;28;19914;-75
2024/03/22 04:25:00;;;;;;;;;;;8.40;99.90;;;;;;2067832;28;19922;-76
2024/03/22 04:26:01;;;;;;;;;;;8.40;99.90;;;;;;2067077;28;20408;-75
2024/03/22 04:27:02;;;;;;;;;;;8.40;99.90;;;;;;2067208;28;19943;-75
2024/03/22 04:28:02;;;;;;;;;;;8.40;99.90;;;;;;2067268;28;19918;-75
2024/03/22 04:29:03;;;;;;;;;;;8.40;99.90;;;;;;2066978;28;20102;-76
2024/03/22 04:30:03;;;;;;;;;;;8.40;99.90;;;;;;2066557;28;20012;-76
2024/03/22 04:31:05;;;;;;;;;;;8.40;99.90;;;;;;2054265;28;20270;-76
2024/03/22 04:32:05;;;;;;;;;;;8.40;99.90;;;;;;2058527;28;19917;-75
2024/03/22 04:33:06;;;;;;;;;;;8.40;99.90;;;;;;2067079;28;19913;-76
2024/03/22 04:34:07;;;;;;;;;;;8.40;99.90;;;;;;2067505;28;19920;-76
2024/03/22 04:35:08;;;;;;;;;;;8.40;99.90;;;;;;2067017;28;19929;-75
2024/03/22 04:36:11;;;;;;;;;;;8.40;99.90;;;;;;2066577;28;19961;-76
2024/03/22 04:37:11;;;;;;;;;;;8.40;99.90;;;;;;2066609;28;19914;-76
2024/03/22 04:38:12;;;;;;;;;;;8.40;99.90;;;;;;2058607;28;20473;-76
2024/03/22 04:39:13;;;;;;;;;;;8.40;99.90;;;;;;2058328;28;19984;-75
2024/03/22 04:40:14;;;;;;;;;;;8.40;99.90;;;;;;2066649;28;20408;-75
2024/03/22 04:41:14;;;;;;;;;;;8.40;99.90;;;;;;2067085;28;19917;-76
2024/03/22 04:42:15;;;;;;;;;;;8.40;99.90;;;;;;2066389;28;19964;-75
2024/03/22 04:43:16;;;;;;;;;;;8.40;99.90;;;;;;2066476;28;20193;-75
2024/03/22 04:44:17;;;;;;;;;;;8.40;99.90;;;;;;2067285;28;19917;-76
2024/03/22 04:45:17;;;;;;;;;;;8.40;99.90;;;;;;2067405;28;19954;-76
2024/03/22 04:46:18;;;;;;;;;;;8.40;99.90;;;;;;2067140;28;19913;-76
2024/03/22 04:47:19;;;;;;;;;;;8.30;99.90;;;;;;2066424;28;19921;-76
2024/03/22 04:48:21;;;;;;;;;;;8.30;99.90;;;;;;2066429;28;19917;-76
2024/03/22 04:49:22;;;;;;;;;;;8.30;99.90;;;;;;2067114;28;19913;-75
2024/03/22 04:50:22;;;;;;;;;;;8.30;99.90;;;;;;2065401;28;20012;-76
2024/03/22 04:51:23;;;;;;;;;;;8.30;99.90;;;;;;2069055;28;19925;-75
2024/03/22 04:52:23;;;;;;;;;;;8.30;99.90;;;;;;2067109;28;20330;-76
2024/03/22 04:53:24;;;;;;;;;;;8.30;99.90;;;;;;2057995;28;19918;-75
2024/03/22 04:54:24;;;;;;;;;;;8.30;99.90;;;;;;2058299;28;19985;-76
2024/03/22 04:55:25;;;;;;;;;;;8.20;99.90;;;;;;2058329;28;19918;-76
2024/03/22 04:56:25;;;;;;;;;;;8.20;99.90;;;;;;2062272;28;20375;-75
2024/03/22 04:57:26;;;;;;;;;;;8.20;99.90;;;;;;2067060;28;19948;-75
2024/03/22 04:58:26;;;;;;;;;;;8.10;99.90;;;;;;2058077;28;20154;-75
2024/03/22 04:59:27;;;;;;;;;;;8.10;99.90;;;;;;2062519;28;19925;-75
2024/03/22 05:00:28;;;;;;;;;;;8.10;99.90;;;;;;2058344;28;20005;-73
2024/03/22 05:01:28;;;;;;;;;;;8.10;99.90;;;;;;2066505;28;19921;-75
2024/03/22 05:02:29;;;;;;;;;;;8.20;99.90;;;;;;2066339;28;19920;-75
2024/03/22 05:03:29;;;;;;;;;;;8.10;99.90;;;;;;2058283;28;19918;-75
2024/03/22 05:04:30;;;;;;;;;;;8.10;99.90;;;;;;2058951;28;19925;-74
2024/03/22 05:05:30;;;;;;;;;;;8.10;99.90;;;;;;2058186;28;20293;-75
2024/03/22 05:06:31;;;;;;;;;;;8.20;99.90;;;;;;2066351;28;20020;-75
2024/03/22 05:07:31;;;;;;;;;;;8.10;99.90;;;;;;2067280;28;20398;-75
2024/03/22 05:08:32;;;;;;;;;;;8.10;99.90;;;;;;2067202;28;20499;-74
2024/03/22 05:09:33;;;;;;;;;;;8.10;99.90;;;;;;2068664;28;19968;-75
2024/03/22 05:10:33;;;;;;;;;;;8.10;99.90;;;;;;2063174;28;20378;-72
2024/03/22 05:11:34;;;;;;;;;;;8.10;99.90;;;;;;2066719;28;20033;-74
2024/03/22 05:12:35;;;;;;;;;;;8.10;99.90;;;;;;2066582;28;19928;-74
2024/03/22 05:13:35;;;;;;;;;;;8.10;99.90;;;;;;2066731;28;19997;-76
2024/03/22 05:14:36;;;;;;;;;;;8.10;99.90;;;;;;2066865;28;19913;-75
2024/03/22 05:15:36;;;;;;;;;;;8.20;99.90;;;;;;2066621;28;19921;-75
2024/03/22 05:16:37;;;;;;;;;;;8.20;99.90;;;;;;2066512;28;20271;-76
2024/03/22 05:17:39;;;;;;;;;;;8.20;99.90;;;;;;2058622;28;20387;-74
2024/03/22 05:18:39;;;;;;;;;;;8.30;99.90;;;;;;2062149;28;19936;-74
2024/03/22 05:19:40;;;;;;;;;;;8.30;99.90;;;;;;2067326;28;19932;-75
2024/03/22 05:20:40;;;;;;;;;;;8.30;99.90;;;;;;2067416;28;19923;-75
2024/03/22 05:21:41;;;;;;;;;;;8.30;99.90;;;;;;2067064;28;19913;-75
2024/03/22 05:22:42;;;;;;;;;;;8.30;99.90;;;;;;2067076;28;19920;-74
2024/03/22 05:23:42;;;;;;;;;;;8.40;99.90;;;;;;2067564;28;20103;-75
2024/03/22 05:24:43;;;;;;;;;;;8.40;99.90;;;;;;2066992;28;20261;-75
2024/03/22 05:25:43;;;;;;;;;;;8.40;99.90;;;;;;2066815;28;19932;-75
2024/03/22 05:26:44;;;;;;;;;;;8.40;99.90;;;;;;2066488;28;19923;-74
2024/03/22 05:27:45;;;;;;;;;;;8.40;99.90;;;;;;2066417;28;19975;-74
2024/03/22 05:28:45;;;;;;;;;;;8.50;99.90;;;;;;2067042;28;19925;-76
2024/03/22 05:29:45;;;;;;;;;;;8.50;99.90;;;;;;2067091;28;19957;-75
2024/03/22 05:30:46;;;;;;;;;;;8.60;99.90;;;;;;2063662;28;20362;-74
2024/03/22 05:31:48;;;;;;;;;;;8.70;99.90;;;;;;2066853;28;19914;-75
2024/03/22 05:32:50;;;;;;;;;;;8.70;99.90;;;;;;2067197;28;19917;-75
2024/03/22 05:33:50;;;;;;;;;;;8.60;99.90;;;;;;2067741;28;19967;-74
2024/03/22 05:34:51;;;;;;;;;;;8.70;99.90;;;;;;2066406;28;19936;-74
2024/03/22 05:35:51;;;;;;;;;;;8.70;99.90;;;;;;2066366;28;20462;-75
2024/03/22 05:36:52;;;;;;;;;;;8.60;99.90;;;;;;2067109;28;20078;-76
2024/03/22 05:37:52;;;;;;;;;;;8.70;99.90;;;;;;2067213;28;20376;-77
2024/03/22 05:38:53;;;;;;;;;;;8.70;99.90;;;;;;2067303;28;20194;-76
2024/03/22 05:39:54;;;;;;;;;;;8.70;99.90;;;;;;2066589;28;19965;-77
2024/03/22 05:40:55;;;;;;;;;;;8.70;99.90;;;;;;2058315;28;19914;-77
2024/03/22 05:41:55;;;;;;;;;;;8.80;99.90;;;;;;2050232;28;19973;-77
2024/03/22 05:42:56;;;;;;;;;;;8.80;99.90;;;;;;2054617;28;20409;-76
2024/03/22 05:43:56;;;;;;;;;;;8.80;99.90;;;;;;2067126;28;20477;-76
2024/03/22 05:44:57;;;;;;;;;;;8.80;99.90;;;;;;2060768;28;19957;-76
2024/03/22 05:45:57;;;;;;;;;;;8.90;99.90;;;;;;2059586;28;19922;-77
2024/03/22 05:46:58;;;;;;;;;;;8.90;99.90;;;;;;2058405;28;19940;-76
2024/03/22 05:47:58;;;;;;;;;;;8.90;99.90;;;;;;2068179;28;19949;-76
2024/03/22 05:48:59;;;;;;;;;;;9.00;99.90;;;;;;2067826;28;20331;-76
2024/03/22 05:49:59;;;;;;;;;;;9.00;99.90;;;;;;2059842;28;19925;-77
2024/03/22 05:51:00;;;;;;;;;;;9.00;99.90;;;;;;2067628;28;20486;-77
2024/03/22 05:52:01;;;;;;;;;;;9.00;99.90;;;;;;2068566;28;19977;-77
2024/03/22 05:53:01;;;;;;;;;;;9.00;99.90;;;;;;2060028;28;20028;-77
2024/03/22 05:54:02;;;;;;;;;;;8.90;99.90;;;;;;2059682;28;20370;-76
2024/03/22 05:55:03;;;;;;;;;;;9.00;99.90;;;;;;2068664;28;20649;-77
2024/03/22 05:56:04;;;;;;;;;;;9.00;99.90;;;;;;2067625;28;20007;-76
2024/03/22 05:57:07;;;;;;;;;;;9.00;99.90;;;;;;2068312;28;19917;-77
2024/03/22 05:58:09;;;;;;;;;;;9.00;99.90;;;;;;2068082;28;19917;-76